sensor_id;sensor_type;location;lat;lon;timestamp;pressure;altitude;pressure_sealevel;temperature;humidity
80180;BME280;69505;52.134;5.438;2023-09-19T00:00:21;100885.81;;;13.37;100.00
80180;BME280;69505;52.134;5.438;2023-09-19T00:02:58;100890.84;;;13.30;100.00
80180;BME280;69505;52.134;5.438;2023-09-19T00:05:29;100893.66;;;13.29;100.00
80180;BME280;69505;52.134;5.438;2023-09-19T00:07:57;100903.44;;;13.28;100.00
80180;BME280;69505;52.134;5.438;2023-09-19T00:10:27;100900.06;;;13.26;100.00
80180;BME280;69505;52.134;5.438;2023-09-19T00:12:58;100900.34;;;13.23;100.00
80180;BME280;69505;52.134;5.438;2023-09-19T00:15:37;100909.31;;;13.22;100.00
80180;BME280;69505;52.134;5.438;2023-09-19T00:18:05;100913.69;;;13.23;100.00
80180;BME280;69505;52.134;5.438;2023-09-19T00:20:35;100915.13;;;13.27;100.00
80180;BME280;69505;52.134;5.438;2023-09-19T00:23:02;100906.97;;;13.29;100.00
80180;BME280;69505;52.134;5.438;2023-09-19T00:25:32;100899.47;;;13.23;100.00
80180;BME280;69505;52.134;5.438;2023-09-19T00:27:59;100902.16;;;13.23;100.00
80180;BME280;69505;52.134;5.438;2023-09-19T00:30:25;100910.88;;;13.25;100.00
80180;BME280;69505;52.134;5.438;2023-09-19T00:32:53;100913.09;;;13.19;100.00
80180;BME280;69505;52.134;5.438;2023-09-19T00:35:20;100913.09;;;13.19;100.00
80180;BME280;69505;52.134;5.438;2023-09-19T00:37:50;100918.31;;;13.21;100.00
80180;BME280;69505;52.134;5.438;2023-09-19T00:40:17;100917.31;;;13.22;100.00
80180;BME280;69505;52.134;5.438;2023-09-19T00:42:46;100920.81;;;13.23;100.00
80180;BME280;69505;52.134;5.438;2023-09-19T00:45:14;100924.19;;;13.25;100.00
80180;BME280;69505;52.134;5.438;2023-09-19T00:47:48;100922.25;;;13.27;100.00
80180;BME280;69505;52.134;5.438;2023-09-19T00:50:20;100913.53;;;13.25;100.00
80180;BME280;69505;52.134;5.438;2023-09-19T00:52:49;100921.41;;;13.26;100.00
80180;BME280;69505;52.134;5.438;2023-09-19T00:55:17;100930.03;;;13.30;100.00
80180;BME280;69505;52.134;5.438;2023-09-19T00:57:48;100923.84;;;13.29;100.00
80180;BME280;69505;52.134;5.438;2023-09-19T01:00:18;100924.56;;;13.31;100.00
80180;BME280;69505;52.134;5.438;2023-09-19T01:02:46;100937.75;;;13.33;100.00
80180;BME280;69505;52.134;5.438;2023-09-19T01:05:14;100936.63;;;13.35;100.00
80180;BME280;69505;52.134;5.438;2023-09-19T01:07:41;100935.78;;;13.35;100.00
80180;BME280;69505;52.134;5.438;2023-09-19T01:10:09;100943.66;;;13.36;100.00
80180;BME280;69505;52.134;5.438;2023-09-19T01:17:46;100933.00;;;13.36;100.00
80180;BME280;69505;52.134;5.438;2023-09-19T01:20:26;100934.13;;;13.34;100.00
80180;BME280;69505;52.134;5.438;2023-09-19T01:29:07;100939.97;;;13.28;100.00
80180;BME280;69505;52.134;5.438;2023-09-19T01:31:09;100935.47;;;13.28;100.00
80180;BME280;69505;52.134;5.438;2023-09-19T01:33:58;100942.53;;;13.29;100.00
80180;BME280;69505;52.134;5.438;2023-09-19T01:36:31;100945.63;;;13.34;100.00
80180;BME280;69505;52.134;5.438;2023-09-19T01:39:06;100936.91;;;13.32;100.00
80180;BME280;69505;52.134;5.438;2023-09-19T01:41:47;100935.78;;;13.35;100.00
80180;BME280;69505;52.134;5.438;2023-09-19T01:44:25;100941.00;;;13.36;100.00
80180;BME280;69505;52.134;5.438;2023-09-19T01:46:58;100943.66;;;13.36;100.00
80180;BME280;69505;52.134;5.438;2023-09-19T01:49:44;100945.50;;;13.36;100.00
80180;BME280;69505;52.134;5.438;2023-09-19T01:52:18;100949.28;;;13.33;100.00
80180;BME280;69505;52.134;5.438;2023-09-19T01:54:50;100942.97;;;13.34;100.00
80180;BME280;69505;52.134;5.438;2023-09-19T01:57:22;100948.16;;;13.36;100.00
80180;BME280;69505;52.134;5.438;2023-09-19T02:00:06;100949.00;;;13.36;100.00
80180;BME280;69505;52.134;5.438;2023-09-19T02:02:38;100952.63;;;13.35;100.00
80180;BME280;69505;52.134;5.438;2023-09-19T02:05:06;100947.59;;;13.32;100.00
80180;BME280;69505;52.134;5.438;2023-09-19T02:07:33;100954.13;;;13.28;100.00
80180;BME280;69505;52.134;5.438;2023-09-19T02:10:02;100959.47;;;13.28;100.00
80180;BME280;69505;52.134;5.438;2023-09-19T02:12:32;100952.47;;;13.27;100.00
80180;BME280;69505;52.134;5.438;2023-09-19T02:14:59;100944.47;;;13.27;100.00
80180;BME280;69505;52.134;5.438;2023-09-19T02:17:26;100948.38;;;13.23;100.00
80180;BME280;69505;52.134;5.438;2023-09-19T02:19:53;100941.91;;;13.26;100.00
80180;BME280;69505;52.134;5.438;2023-09-19T02:22:21;100939.66;;;13.21;100.00
80180;BME280;69505;52.134;5.438;2023-09-19T02:24:49;100946.94;;;13.19;100.00
80180;BME280;69505;52.134;5.438;2023-09-19T02:27:16;100947.19;;;13.16;100.00
80180;BME280;69505;52.134;5.438;2023-09-19T02:29:46;100951.81;;;13.14;100.00
80180;BME280;69505;52.134;5.438;2023-09-19T02:32:12;100959.56;;;13.17;100.00
80180;BME280;69505;52.134;5.438;2023-09-19T02:34:39;100952.53;;;13.16;100.00
80180;BME280;69505;52.134;5.438;2023-09-19T02:37:06;100968.28;;;13.19;100.00
80180;BME280;69505;52.134;5.438;2023-09-19T02:39:32;100964.03;;;13.16;100.00
80180;BME280;69505;52.134;5.438;2023-09-19T02:42:00;100960.66;;;13.14;100.00
80180;BME280;69505;52.134;5.438;2023-09-19T02:44:26;100963.59;;;13.11;100.00
80180;BME280;69505;52.134;5.438;2023-09-19T02:46:53;100960.00;;;13.01;100.00
80180;BME280;69505;52.134;5.438;2023-09-19T02:49:20;100965.34;;;13.01;100.00
80180;BME280;69505;52.134;5.438;2023-09-19T02:51:47;100963.09;;;12.96;100.00
80180;BME280;69505;52.134;5.438;2023-09-19T02:54:13;100967.69;;;12.94;100.00
80180;BME280;69505;52.134;5.438;2023-09-19T02:56:42;100963.59;;;12.90;100.00
80180;BME280;69505;52.134;5.438;2023-09-19T02:59:08;100960.72;;;12.82;100.00
80180;BME280;69505;52.134;5.438;2023-09-19T03:01:39;100978.56;;;12.82;100.00
80180;BME280;69505;52.134;5.438;2023-09-19T03:04:05;100973.97;;;12.72;100.00
80180;BME280;69505;52.134;5.438;2023-09-19T03:06:37;100965.41;;;12.69;100.00
80180;BME280;69505;52.134;5.438;2023-09-19T03:09:05;100969.31;;;12.65;100.00
80180;BME280;69505;52.134;5.438;2023-09-19T03:11:39;100965.94;;;12.63;100.00
80180;BME280;69505;52.134;5.438;2023-09-19T03:14:06;100957.72;;;12.54;100.00
80180;BME280;69505;52.134;5.438;2023-09-19T03:16:33;100965.97;;;12.51;100.00
80180;BME280;69505;52.134;5.438;2023-09-19T03:18:59;100956.53;;;12.47;100.00
80180;BME280;69505;52.134;5.438;2023-09-19T03:21:26;100964.06;;;12.42;100.00
80180;BME280;69505;52.134;5.438;2023-09-19T03:23:53;100962.03;;;12.34;100.00
80180;BME280;69505;52.134;5.438;2023-09-19T03:26:19;100963.97;;;12.32;100.00
80180;BME280;69505;52.134;5.438;2023-09-19T03:28:46;100959.41;;;12.23;100.00
80180;BME280;69505;52.134;5.438;2023-09-19T03:31:13;100967.28;;;12.25;100.00
80180;BME280;69505;52.134;5.438;2023-09-19T03:33:40;100966.47;;;12.24;100.00
80180;BME280;69505;52.134;5.438;2023-09-19T03:36:07;100968.63;;;12.19;100.00
80180;BME280;69505;52.134;5.438;2023-09-19T03:38:34;100967.69;;;12.20;100.00
80180;BME280;69505;52.134;5.438;2023-09-19T03:41:02;100973.34;;;12.15;100.00
80180;BME280;69505;52.134;5.438;2023-09-19T03:43:28;100965.13;;;12.07;100.00
80180;BME280;69505;52.134;5.438;2023-09-19T03:45:55;100951.72;;;12.09;100.00
80180;BME280;69505;52.134;5.438;2023-09-19T03:48:22;100957.53;;;12.03;100.00
80180;BME280;69505;52.134;5.438;2023-09-19T03:50:49;100952.69;;;11.96;100.00
80180;BME280;69505;52.134;5.438;2023-09-19T03:53:16;100957.91;;;11.98;100.00
80180;BME280;69505;52.134;5.438;2023-09-19T03:55:44;100966.28;;;11.93;100.00
80180;BME280;69505;52.134;5.438;2023-09-19T03:58:11;100965.91;;;11.87;100.00
80180;BME280;69505;52.134;5.438;2023-09-19T04:00:38;100966.00;;;11.85;100.00
80180;BME280;69505;52.134;5.438;2023-09-19T04:03:05;100976.03;;;11.82;100.00
80180;BME280;69505;52.134;5.438;2023-09-19T04:05:33;100975.47;;;11.78;100.00
80180;BME280;69505;52.134;5.438;2023-09-19T04:08:00;100986.13;;;11.78;100.00
80180;BME280;69505;52.134;5.438;2023-09-19T04:10:27;100986.47;;;11.73;100.00
80180;BME280;69505;52.134;5.438;2023-09-19T04:12:55;100993.00;;;11.69;100.00
80180;BME280;69505;52.134;5.438;2023-09-19T04:15:23;100991.69;;;11.64;100.00
80180;BME280;69505;52.134;5.438;2023-09-19T04:17:50;100996.84;;;11.65;100.00
80180;BME280;69505;52.134;5.438;2023-09-19T04:20:18;100995.19;;;11.64;100.00
80180;BME280;69505;52.134;5.438;2023-09-19T04:22:46;100998.06;;;11.61;100.00
80180;BME280;69505;52.134;5.438;2023-09-19T04:25:13;100997.38;;;11.59;100.00
80180;BME280;69505;52.134;5.438;2023-09-19T04:27:40;101009.69;;;11.60;100.00
80180;BME280;69505;52.134;5.438;2023-09-19T04:30:10;101007.75;;;11.62;100.00
80180;BME280;69505;52.134;5.438;2023-09-19T04:32:38;101011.97;;;11.65;100.00
80180;BME280;69505;52.134;5.438;2023-09-19T04:35:09;101015.16;;;11.70;100.00
80180;BME280;69505;52.134;5.438;2023-09-19T04:37:40;101011.97;;;11.65;100.00
80180;BME280;69505;52.134;5.438;2023-09-19T04:40:09;101031.81;;;11.61;100.00
80180;BME280;69505;52.134;5.438;2023-09-19T04:42:42;101038.69;;;11.63;100.00
80180;BME280;69505;52.134;5.438;2023-09-19T04:45:10;101049.00;;;11.68;100.00
80180;BME280;69505;52.134;5.438;2023-09-19T04:47:40;101038.38;;;11.68;100.00
80180;BME280;69505;52.134;5.438;2023-09-19T04:50:09;101034.38;;;11.62;100.00
80180;BME280;69505;52.134;5.438;2023-09-19T04:52:44;101035.47;;;11.60;100.00
80180;BME280;69505;52.134;5.438;2023-09-19T04:55:15;101030.25;;;11.58;100.00
80180;BME280;69505;52.134;5.438;2023-09-19T04:57:46;101036.28;;;11.60;100.00
80180;BME280;69505;52.134;5.438;2023-09-19T05:00:15;101023.97;;;11.59;100.00
80180;BME280;69505;52.134;5.438;2023-09-19T05:02:43;101027.59;;;11.58;99.88
80180;BME280;69505;52.134;5.438;2023-09-19T05:05:10;101029.03;;;11.62;100.00
80180;BME280;69505;52.134;5.438;2023-09-19T05:07:41;101028.44;;;11.58;100.00
80180;BME280;69505;52.134;5.438;2023-09-19T05:10:09;101032.06;;;11.57;100.00
80180;BME280;69505;52.134;5.438;2023-09-19T05:12:36;101044.63;;;11.55;99.94
80180;BME280;69505;52.134;5.438;2023-09-19T05:15:04;101039.78;;;11.61;100.00
80180;BME280;69505;52.134;5.438;2023-09-19T05:17:31;101036.19;;;11.62;100.00
80180;BME280;69505;52.134;5.438;2023-09-19T05:19:58;101033.53;;;11.62;99.77
80180;BME280;69505;52.134;5.438;2023-09-19T05:22:26;101050.31;;;11.62;99.88
80180;BME280;69505;52.134;5.438;2023-09-19T05:24:53;101037.75;;;11.64;99.61
80180;BME280;69505;52.134;5.438;2023-09-19T05:27:20;101045.00;;;11.62;100.00
80180;BME280;69505;52.134;5.438;2023-09-19T05:29:47;101046.94;;;11.60;100.00
80180;BME280;69505;52.134;5.438;2023-09-19T05:32:17;101042.22;;;11.64;100.00
80180;BME280;69505;52.134;5.438;2023-09-19T05:34:46;101042.44;;;11.61;100.00
80180;BME280;69505;52.134;5.438;2023-09-19T05:37:19;101042.69;;;11.69;99.99
80180;BME280;69505;52.134;5.438;2023-09-19T05:39:46;101033.78;;;11.70;100.00
80180;BME280;69505;52.134;5.438;2023-09-19T05:42:13;101023.84;;;11.72;100.00
80180;BME280;69505;52.134;5.438;2023-09-19T05:44:40;101036.53;;;11.79;100.00
80180;BME280;69505;52.134;5.438;2023-09-19T05:47:07;101032.09;;;11.80;99.83
80180;BME280;69505;52.134;5.438;2023-09-19T05:49:35;101032.91;;;11.81;99.69
80180;BME280;69505;52.134;5.438;2023-09-19T05:52:07;101037.66;;;11.88;99.96
80180;BME280;69505;52.134;5.438;2023-09-19T05:54:34;101042.22;;;11.86;100.00
80180;BME280;69505;52.134;5.438;2023-09-19T05:57:04;101047.94;;;11.93;99.97
80180;BME280;69505;52.134;5.438;2023-09-19T05:59:30;101044.31;;;11.94;100.00
80180;BME280;69505;52.134;5.438;2023-09-19T06:01:57;101053.97;;;12.06;100.00
80180;BME280;69505;52.134;5.438;2023-09-19T06:04:24;101046.59;;;12.10;99.85
80180;BME280;69505;52.134;5.438;2023-09-19T06:06:51;101048.16;;;12.12;99.93
80180;BME280;69505;52.134;5.438;2023-09-19T06:09:18;101061.59;;;12.11;99.90
80180;BME280;69505;52.134;5.438;2023-09-19T06:11:49;101071.03;;;12.15;99.68
80180;BME280;69505;52.134;5.438;2023-09-19T06:14:15;101068.97;;;12.18;99.10
80180;BME280;69505;52.134;5.438;2023-09-19T06:16:44;101076.00;;;12.19;99.20
80180;BME280;69505;52.134;5.438;2023-09-19T06:19:11;101071.00;;;12.26;98.73
80180;BME280;69505;52.134;5.438;2023-09-19T06:21:38;101059.28;;;12.29;98.95
80180;BME280;69505;52.134;5.438;2023-09-19T06:24:05;101064.34;;;12.32;98.59
80180;BME280;69505;52.134;5.438;2023-09-19T06:26:32;101075.50;;;12.37;98.66
80180;BME280;69505;52.134;5.438;2023-09-19T06:28:58;101079.84;;;12.38;98.91
80180;BME280;69505;52.134;5.438;2023-09-19T06:31:26;101079.34;;;12.44;98.70
80180;BME280;69505;52.134;5.438;2023-09-19T06:33:53;101070.13;;;12.48;99.28
80180;BME280;69505;52.134;5.438;2023-09-19T06:36:19;101071.59;;;12.52;99.49
80180;BME280;69505;52.134;5.438;2023-09-19T06:38:46;101058.25;;;12.52;99.22
80180;BME280;69505;52.134;5.438;2023-09-19T06:41:13;101069.13;;;12.61;99.03
80180;BME280;69505;52.134;5.438;2023-09-19T06:43:42;101065.13;;;12.66;99.62
80180;BME280;69505;52.134;5.438;2023-09-19T06:46:09;101061.09;;;12.72;98.24
80180;BME280;69505;52.134;5.438;2023-09-19T06:48:36;101062.31;;;12.79;98.05
80180;BME280;69505;52.134;5.438;2023-09-19T06:51:02;101067.84;;;12.87;97.73
80180;BME280;69505;52.134;5.438;2023-09-19T06:53:32;101067.19;;;12.95;97.98
80180;BME280;69505;52.134;5.438;2023-09-19T06:56:01;101061.63;;;12.98;97.79
80180;BME280;69505;52.134;5.438;2023-09-19T06:58:28;101059.41;;;13.03;97.71
80180;BME280;69505;52.134;5.438;2023-09-19T07:00:55;101064.34;;;13.08;97.92
80180;BME280;69505;52.134;5.438;2023-09-19T07:03:22;101068.91;;;13.17;97.84
80180;BME280;69505;52.134;5.438;2023-09-19T07:05:52;101065.72;;;13.23;96.92
80180;BME280;69505;52.134;5.438;2023-09-19T07:08:19;101060.75;;;13.30;98.12
80180;BME280;69505;52.134;5.438;2023-09-19T07:10:46;101066.53;;;13.35;97.24
80180;BME280;69505;52.134;5.438;2023-09-19T07:13:16;101064.78;;;13.45;97.91
80180;BME280;69505;52.134;5.438;2023-09-19T07:15:45;101065.94;;;13.52;96.92
80180;BME280;69505;52.134;5.438;2023-09-19T07:18:17;101073.28;;;13.60;96.66
80180;BME280;69505;52.134;5.438;2023-09-19T07:20:45;101067.53;;;13.65;96.65
80180;BME280;69505;52.134;5.438;2023-09-19T07:23:19;101080.22;;;13.72;96.79
80180;BME280;69505;52.134;5.438;2023-09-19T07:25:48;101080.41;;;13.80;96.84
80180;BME280;69505;52.134;5.438;2023-09-19T07:28:15;101082.09;;;13.81;96.49
80180;BME280;69505;52.134;5.438;2023-09-19T07:30:42;101080.00;;;13.85;95.85
80180;BME280;69505;52.134;5.438;2023-09-19T07:33:09;101085.94;;;13.89;94.77
80180;BME280;69505;52.134;5.438;2023-09-19T07:35:39;101094.25;;;13.95;94.28
80180;BME280;69505;52.134;5.438;2023-09-19T07:38:08;101096.69;;;13.98;93.22
80180;BME280;69505;52.134;5.438;2023-09-19T07:40:36;101087.00;;;14.07;93.64
80180;BME280;69505;52.134;5.438;2023-09-19T07:43:03;101084.75;;;14.12;93.90
80180;BME280;69505;52.134;5.438;2023-09-19T07:45:33;101093.78;;;14.21;92.80
80180;BME280;69505;52.134;5.438;2023-09-19T07:48:02;101082.84;;;14.34;93.12
80180;BME280;69505;52.134;5.438;2023-09-19T07:50:32;101088.09;;;14.45;91.59
80180;BME280;69505;52.134;5.438;2023-09-19T07:52:59;101097.88;;;14.56;91.75
80180;BME280;69505;52.134;5.438;2023-09-19T07:55:26;101098.44;;;14.59;91.29
80180;BME280;69505;52.134;5.438;2023-09-19T07:57:53;101098.56;;;14.68;91.78
80180;BME280;69505;52.134;5.438;2023-09-19T08:00:19;101091.41;;;14.68;90.04
80180;BME280;69505;52.134;5.438;2023-09-19T08:02:46;101098.56;;;14.68;90.96
80180;BME280;69505;52.134;5.438;2023-09-19T08:05:22;101093.66;;;14.73;91.12
80180;BME280;69505;52.134;5.438;2023-09-19T08:07:49;101094.25;;;14.76;89.54
80180;BME280;69505;52.134;5.438;2023-09-19T08:10:16;101093.38;;;14.86;90.50
80180;BME280;69505;52.134;5.438;2023-09-19T08:12:46;101102.41;;;15.04;90.63
80180;BME280;69505;52.134;5.438;2023-09-19T08:15:20;101104.38;;;15.21;91.09
80180;BME280;69505;52.134;5.438;2023-09-19T08:17:47;101109.16;;;15.28;89.78
80180;BME280;69505;52.134;5.438;2023-09-19T08:20:14;101099.59;;;15.25;89.11
80180;BME280;69505;52.134;5.438;2023-09-19T08:22:52;101099.28;;;15.28;90.14
80180;BME280;69505;52.134;5.438;2023-09-19T08:25:19;101092.53;;;15.34;90.19
80180;BME280;69505;52.134;5.438;2023-09-19T08:27:46;101091.84;;;15.41;88.54
80180;BME280;69505;52.134;5.438;2023-09-19T08:30:19;101094.78;;;15.48;88.64
80180;BME280;69505;52.134;5.438;2023-09-19T08:32:51;101087.13;;;15.63;88.76
80180;BME280;69505;52.134;5.438;2023-09-19T08:35:18;101091.06;;;15.69;87.58
80180;BME280;69505;52.134;5.438;2023-09-19T08:37:46;101090.66;;;15.73;88.49
80180;BME280;69505;52.134;5.438;2023-09-19T08:40:12;101084.03;;;15.77;88.96
80180;BME280;69505;52.134;5.438;2023-09-19T08:42:55;101085.81;;;15.87;88.39
80180;BME280;69505;52.134;5.438;2023-09-19T08:45:23;101083.25;;;15.95;86.64
80180;BME280;69505;52.134;5.438;2023-09-19T08:48:00;101084.06;;;16.05;87.55
80180;BME280;69505;52.134;5.438;2023-09-19T08:50:33;101086.25;;;16.19;87.73
80180;BME280;69505;52.134;5.438;2023-09-19T08:53:10;101080.47;;;16.14;86.72
80180;BME280;69505;52.134;5.438;2023-09-19T08:55:40;101073.31;;;16.33;87.73
80180;BME280;69505;52.134;5.438;2023-09-19T08:58:10;101070.09;;;16.29;83.68
80180;BME280;69505;52.134;5.438;2023-09-19T09:00:38;101078.88;;;16.49;84.82
80180;BME280;69505;52.134;5.438;2023-09-19T09:03:10;101079.56;;;16.69;84.62
80180;BME280;69505;52.134;5.438;2023-09-19T09:05:41;101073.78;;;16.92;83.52
80180;BME280;69505;52.134;5.438;2023-09-19T09:08:10;101077.91;;;17.66;81.34
80180;BME280;69505;52.134;5.438;2023-09-19T09:10:37;101073.09;;;17.52;79.67
80180;BME280;69505;52.134;5.438;2023-09-19T09:13:04;101082.47;;;17.48;81.00
80180;BME280;69505;52.134;5.438;2023-09-19T09:15:36;101082.72;;;17.36;80.34
80180;BME280;69505;52.134;5.438;2023-09-19T09:18:03;101087.16;;;17.45;83.29
80180;BME280;69505;52.134;5.438;2023-09-19T09:20:31;101077.84;;;17.58;80.89
80180;BME280;69505;52.134;5.438;2023-09-19T09:22:58;101077.84;;;17.84;79.55
80180;BME280;69505;52.134;5.438;2023-09-19T09:28:24;101075.47;;;17.55;77.74
80180;BME280;69505;52.134;5.438;2023-09-19T09:30:51;101067.97;;;17.40;80.28
80180;BME280;69505;52.134;5.438;2023-09-19T09:33:17;101065.34;;;17.22;77.77
80180;BME280;69505;52.134;5.438;2023-09-19T09:35:48;101075.28;;;17.30;80.61
80180;BME280;69505;52.134;5.438;2023-09-19T09:38:24;101061.75;;;17.40;77.93
80180;BME280;69505;52.134;5.438;2023-09-19T09:40:55;101069.34;;;17.97;77.82
80180;BME280;69505;52.134;5.438;2023-09-19T09:43:38;101051.91;;;17.75;78.21
80180;BME280;69505;52.134;5.438;2023-09-19T09:49:01;101053.94;;;18.07;77.32
80180;BME280;69505;52.134;5.438;2023-09-19T09:51:48;101051.19;;;18.41;74.36
80180;BME280;69505;52.134;5.438;2023-09-19T09:54:25;101046.34;;;18.61;74.97
80180;BME280;69505;52.134;5.438;2023-09-19T09:56:59;101043.78;;;18.43;72.26
80180;BME280;69505;52.134;5.438;2023-09-19T09:59:56;101052.13;;;18.16;74.81
80180;BME280;69505;52.134;5.438;2023-09-19T10:02:42;101041.28;;;18.42;74.93
80180;BME280;69505;52.134;5.438;2023-09-19T10:05:12;101052.66;;;18.28;75.81
80180;BME280;69505;52.134;5.438;2023-09-19T10:07:55;101048.44;;;18.17;75.97
80180;BME280;69505;52.134;5.438;2023-09-19T10:10:31;101057.22;;;17.93;76.50
80180;BME280;69505;52.134;5.438;2023-09-19T10:13:17;101059.06;;;17.92;74.36
80180;BME280;69505;52.134;5.438;2023-09-19T10:15:50;101071.50;;;17.67;74.81
80180;BME280;69505;52.134;5.438;2023-09-19T10:18:20;101061.97;;;17.73;76.70
80180;BME280;69505;52.134;5.438;2023-09-19T10:20:48;101052.34;;;17.62;75.53
80180;BME280;69505;52.134;5.438;2023-09-19T10:23:17;101053.34;;;17.61;76.79
80180;BME280;69505;52.134;5.438;2023-09-19T10:25:49;101065.34;;;17.49;75.18
80180;BME280;69505;52.134;5.438;2023-09-19T10:28:17;101048.38;;;17.48;74.81
80180;BME280;69505;52.134;5.438;2023-09-19T10:30:49;101039.59;;;17.64;75.85
80180;BME280;69505;52.134;5.438;2023-09-19T10:33:24;101044.16;;;17.98;77.32
80180;BME280;69505;52.134;5.438;2023-09-19T10:35:58;101036.13;;;18.06;75.44
80180;BME280;69505;52.134;5.438;2023-09-19T10:38:27;101025.88;;;18.10;74.63
80180;BME280;69505;52.134;5.438;2023-09-19T10:40:56;101031.13;;;18.19;76.10
80180;BME280;69505;52.134;5.438;2023-09-19T10:43:32;101023.09;;;18.28;76.04
80180;BME280;69505;52.134;5.438;2023-09-19T10:46:06;101016.69;;;18.29;73.55
80180;BME280;69505;52.134;5.438;2023-09-19T10:48:33;101015.53;;;18.23;74.86
80180;BME280;69505;52.134;5.438;2023-09-19T10:51:10;101012.34;;;18.28;74.47
80180;BME280;69505;52.134;5.438;2023-09-19T10:56:18;101004.88;;;18.13;75.74
80180;BME280;69505;52.134;5.438;2023-09-19T10:58:45;100997.31;;;18.09;76.05
80180;BME280;69505;52.134;5.438;2023-09-19T11:01:12;100994.69;;;18.25;76.01
80180;BME280;69505;52.134;5.438;2023-09-19T11:03:42;100995.56;;;18.66;74.61
80180;BME280;69505;52.134;5.438;2023-09-19T11:06:14;101025.88;;;18.85;73.49
80180;BME280;69505;52.134;5.438;2023-09-19T11:09:00;100994.56;;;18.76;73.06
80180;BME280;69505;52.134;5.438;2023-09-19T11:14:28;100990.72;;;18.78;73.36
80180;BME280;69505;52.134;5.438;2023-09-19T11:33:23;101001.66;;;18.93;70.23
80180;BME280;69505;52.134;5.438;2023-09-19T11:36:11;100994.22;;;18.62;73.07
80180;BME280;69505;52.134;5.438;2023-09-19T11:46:30;100972.16;;;18.26;73.67
80180;BME280;69505;52.134;5.438;2023-09-19T11:49:08;100972.84;;;18.36;72.91
80180;BME280;69505;52.134;5.438;2023-09-19T11:51:43;100960.94;;;18.55;72.87
80180;BME280;69505;52.134;5.438;2023-09-19T11:54:12;100967.00;;;18.74;71.66
80180;BME280;69505;52.134;5.438;2023-09-19T11:56:45;100965.66;;;18.78;70.62
80180;BME280;69505;52.134;5.438;2023-09-19T11:59:22;100973.72;;;18.78;71.84
80180;BME280;69505;52.134;5.438;2023-09-19T12:01:51;100934.22;;;18.78;69.67
80180;BME280;69505;52.134;5.438;2023-09-19T12:04:38;100978.63;;;18.82;71.31
80180;BME280;69505;52.134;5.438;2023-09-19T12:07:13;100973.03;;;18.59;68.74
80180;BME280;69505;52.134;5.438;2023-09-19T12:09:45;100984.59;;;18.43;69.08
80180;BME280;69505;52.134;5.438;2023-09-19T12:12:24;100991.53;;;18.46;69.84
80180;BME280;69505;52.134;5.438;2023-09-19T12:14:54;100982.44;;;18.55;70.25
80180;BME280;69505;52.134;5.438;2023-09-19T12:17:23;100990.19;;;18.66;68.69
80180;BME280;69505;52.134;5.438;2023-09-19T12:19:52;100987.16;;;18.61;69.00
80180;BME280;69505;52.134;5.438;2023-09-19T12:22:19;100971.03;;;18.61;71.54
80180;BME280;69505;52.134;5.438;2023-09-19T12:24:47;100966.63;;;18.69;71.95
80180;BME280;69505;52.134;5.438;2023-09-19T12:27:15;100968.34;;;18.61;71.01
80180;BME280;69505;52.134;5.438;2023-09-19T12:29:46;100968.00;;;18.48;71.06
80180;BME280;69505;52.134;5.438;2023-09-19T12:32:15;100977.38;;;18.36;72.87
80180;BME280;69505;52.134;5.438;2023-09-19T12:34:52;100966.63;;;18.36;71.16
80180;BME280;69505;52.134;5.438;2023-09-19T12:37:20;100971.34;;;18.42;72.11
80180;BME280;69505;52.134;5.438;2023-09-19T12:40:07;100961.75;;;18.48;71.46
80180;BME280;69505;52.134;5.438;2023-09-19T12:42:49;100971.38;;;18.50;70.68
80180;BME280;69505;52.134;5.438;2023-09-19T12:45:16;100976.72;;;18.42;72.96
80180;BME280;69505;52.134;5.438;2023-09-19T12:51:06;100980.69;;;18.13;74.12
80180;BME280;69505;52.134;5.438;2023-09-19T12:53:42;100979.16;;;18.02;74.54
80180;BME280;69505;52.134;5.438;2023-09-19T12:56:15;100979.00;;;18.04;74.02
80180;BME280;69505;52.134;5.438;2023-09-19T12:58:52;100976.84;;;18.16;76.00
80180;BME280;69505;52.134;5.438;2023-09-19T13:01:23;100975.00;;;18.24;74.74
80180;BME280;69505;52.134;5.438;2023-09-19T13:04:19;100977.56;;;18.42;74.19
80180;BME280;69505;52.134;5.438;2023-09-19T13:06:49;100974.88;;;18.51;72.51
80180;BME280;69505;52.134;5.438;2023-09-19T13:09:16;100975.72;;;18.59;73.25
80180;BME280;69505;52.134;5.438;2023-09-19T13:11:43;100974.69;;;18.60;72.33
80180;BME280;69505;52.134;5.438;2023-09-19T13:14:17;100979.41;;;18.66;72.05
80180;BME280;69505;52.134;5.438;2023-09-19T13:17:00;100968.31;;;18.45;74.07
80180;BME280;69505;52.134;5.438;2023-09-19T13:19:38;100975.88;;;18.33;73.14
80180;BME280;69505;52.134;5.438;2023-09-19T13:27:43;100995.78;;;17.98;75.37
80180;BME280;69505;52.134;5.438;2023-09-19T13:30:14;100986.00;;;17.89;75.54
80180;BME280;69505;52.134;5.438;2023-09-19T13:32:41;100986.50;;;17.92;76.06
80180;BME280;69505;52.134;5.438;2023-09-19T13:35:09;100982.41;;;18.14;75.82
80180;BME280;69505;52.134;5.438;2023-09-19T13:37:38;100973.88;;;18.52;75.58
80180;BME280;69505;52.134;5.438;2023-09-19T13:40:12;100969.31;;;18.60;73.90
80180;BME280;69505;52.134;5.438;2023-09-19T13:42:39;100972.03;;;18.69;74.63
80180;BME280;69505;52.134;5.438;2023-09-19T13:45:09;100961.63;;;18.82;73.20
80180;BME280;69505;52.134;5.438;2023-09-19T13:47:40;100967.81;;;18.74;74.43
80180;BME280;69505;52.134;5.438;2023-09-19T13:50:08;100962.94;;;18.70;72.29
80180;BME280;69505;52.134;5.438;2023-09-19T13:52:35;100954.75;;;18.79;73.33
80180;BME280;69505;52.134;5.438;2023-09-19T13:55:02;100949.69;;;18.93;73.35